首页
METAR-TAF:

METAR-TAF

机场 :

迪戈加西亚岛, 英屬印度洋領地

纬度: 07-18S, 经度: 072-24E, 海拔: 1米

当前天气观测

该预报发布于12分钟前的08:55 UTC
风速7节,风向
温度 31°C
湿度 79%
气压 1011 hPa
能见度10公里或以上
少量云层高于2400英尺
散云层高于25000英尺

METAR: FJDG 190855Z 17007KT 9999 FEW024 SCT250 31/27 A2984 RMK SLP102 8/101 T03110274 57017

时间: 15:07 (09:07 UTC)

预报

该预报发布于4小时和40分钟前的04:27 UTC
预报有效从19日的 04点(UTC)到 20日的 07点(UTC)
风速6节,风向多变
能见度10公里或以上
少量云层高于2000英尺
散云层高于25000英尺
短暂存在
从 19日的 18点(UTC)到 19日的 23点(UTC)
能見度: 8000
散云层高于2000英尺
多云层高于5000英尺
阴天层高于25000英尺
小阵雨

TAF: FJDG 190427Z 1904/2007 VRB06KT 9999 FEW020 SCT250 QNH2978INS TEMPO 1918/1923 8000 -SHRA SCT020 BKN050 OVC250 TN27/1923Z TX34/1909Z

超过4000个机场的气象观测和天气预报(METAR&TAF报告)。

可查询的气象台以黄色和红色小点在地图上表示。

将鼠标移到小点上方,可查看气象台名称。

然后点击查看天气观测和预报。

如需切换地图:点击带黑十字的绿色按钮放大地图;点击带横线的绿色按钮缩小地图;或者点击绿色箭头查看邻近地区的地图。


METAR-TAF: